createdAt,value
2022-11-13T00:02:53.662Z,4.97
2022-11-13T00:08:14.146Z,4.60
2022-11-13T00:13:35.139Z,3.90
2022-11-13T00:18:55.598Z,4.22
2022-11-13T00:24:15.901Z,3.58
2022-11-13T00:29:36.197Z,4.30
2022-11-13T00:34:56.563Z,3.78
2022-11-13T00:40:17.281Z,4.28
2022-11-13T00:45:37.526Z,4.07
2022-11-13T00:50:58.284Z,3.97
2022-11-13T00:56:18.536Z,4.10
2022-11-13T01:01:39.345Z,4.30
2022-11-13T01:06:59.646Z,3.92
2022-11-13T01:12:20.037Z,4.53
2022-11-13T01:17:40.465Z,3.90
2022-11-13T01:23:01.060Z,3.60
2022-11-13T01:28:21.429Z,3.97
2022-11-13T01:33:41.852Z,3.85
2022-11-13T01:39:02.486Z,3.92
2022-11-13T01:44:23.293Z,3.75
2022-11-13T01:49:45.653Z,4.28
2022-11-13T01:55:12.052Z,3.95
2022-11-13T02:00:32.285Z,4.93
2022-11-13T02:05:56.787Z,4.38
2022-11-13T02:11:17.667Z,4.50
2022-11-13T02:16:39.477Z,3.78
2022-11-13T02:22:10.749Z,3.72
2022-11-13T02:27:36.552Z,4.38
2022-11-13T02:32:58.328Z,4.85
2022-11-13T02:38:18.964Z,3.92
2022-11-13T02:43:39.392Z,4.75
2022-11-13T02:48:59.993Z,4.47
2022-11-13T02:54:20.583Z,4.28
2022-11-13T02:59:41.536Z,4.03
2022-11-13T03:05:17.067Z,4.28
2022-11-13T03:10:37.584Z,4.30
2022-11-13T03:16:06.838Z,4.53
2022-11-13T03:21:27.372Z,5.20
2022-11-13T03:26:47.641Z,4.75
2022-11-13T03:32:07.704Z,3.75
2022-11-13T03:37:28.003Z,4.00
2022-11-13T03:42:48.409Z,4.85
2022-11-13T03:48:09.288Z,4.47
2022-11-13T03:53:29.745Z,3.85
2022-11-13T03:58:49.931Z,4.43
2022-11-13T04:04:10.267Z,4.65
2022-11-13T04:09:30.578Z,3.60
2022-11-13T04:14:50.863Z,3.85
2022-11-13T04:20:11.846Z,3.42
2022-11-13T04:25:32.290Z,3.53
2022-11-13T04:30:56.122Z,3.60
2022-11-13T04:36:16.422Z,3.72
2022-11-13T04:41:55.760Z,4.50
2022-11-13T04:47:16.052Z,4.22
2022-11-13T04:52:36.469Z,4.40
2022-11-13T04:57:56.745Z,4.32
2022-11-13T05:03:16.947Z,4.00
2022-11-13T05:08:37.312Z,4.43
2022-11-13T05:14:03.035Z,4.60
2022-11-13T05:19:24.646Z,4.18
2022-11-13T05:24:44.670Z,3.58
2022-11-13T05:30:05.638Z,3.65
2022-11-13T05:35:26.081Z,3.33
2022-11-13T05:40:46.683Z,2.95
2022-11-13T05:46:29.093Z,2.80
2022-11-13T05:51:49.307Z,2.97
2022-11-13T05:57:09.642Z,2.88
2022-11-13T06:02:30.115Z,2.65
2022-11-13T06:07:50.746Z,2.90
2022-11-13T06:13:10.982Z,3.08
2022-11-13T06:18:31.975Z,3.47
2022-11-13T06:23:52.426Z,2.78
2022-11-13T06:29:13.185Z,2.90
2022-11-13T06:34:33.456Z,2.90
2022-11-13T06:39:53.746Z,3.20
2022-11-13T06:45:14.129Z,3.50
2022-11-13T06:50:34.551Z,3.50
2022-11-13T06:55:54.666Z,3.70
2022-11-13T07:01:18.049Z,4.18
2022-11-13T07:06:40.552Z,4.20
2022-11-13T07:12:00.726Z,3.92
2022-11-13T07:17:21.016Z,3.58
2022-11-13T07:22:41.454Z,3.45
2022-11-13T07:28:01.751Z,3.85
2022-11-13T07:33:22.298Z,4.05
2022-11-13T07:38:42.754Z,4.43
2022-11-13T07:44:07.938Z,3.35
2022-11-13T07:49:29.689Z,3.42
2022-11-13T07:54:50.225Z,3.80
2022-11-13T08:00:11.337Z,4.82
2022-11-13T08:05:34.246Z,4.60
2022-11-13T08:10:54.358Z,4.53
2022-11-13T08:16:14.885Z,4.18
2022-11-13T08:21:35.991Z,4.22
2022-11-13T08:26:56.080Z,3.60
2022-11-13T08:32:18.215Z,3.97
2022-11-13T08:37:38.424Z,4.32
2022-11-13T08:43:03.932Z,5.13
2022-11-13T08:48:25.359Z,4.93
2022-11-13T08:53:45.787Z,4.40
2022-11-13T08:59:06.043Z,4.00
2022-11-13T09:04:27.121Z,4.90
2022-11-13T09:09:47.640Z,4.25
2022-11-13T09:15:08.522Z,3.50
2022-11-13T09:20:30.839Z,4.10
2022-11-13T09:25:51.159Z,4.38
2022-11-13T09:31:11.553Z,4.13
2022-11-13T09:36:31.911Z,5.25
2022-11-13T09:42:02.324Z,3.80
2022-11-13T09:47:30.624Z,4.88
2022-11-13T09:52:52.172Z,4.50
2022-11-13T09:58:38.937Z,3.95
2022-11-13T10:04:06.132Z,5.05
2022-11-13T10:09:55.584Z,4.93
2022-11-13T10:20:49.959Z,4.53
2022-11-13T10:26:29.585Z,5.38
2022-11-13T10:31:52.342Z,4.88
2022-11-13T10:37:21.204Z,4.80
2022-11-13T10:48:04.602Z,4.45
2022-11-13T10:53:27.586Z,5.35
2022-11-13T10:59:12.038Z,4.55
2022-11-13T11:04:32.480Z,4.53
2022-11-13T11:09:53.042Z,4.35
2022-11-13T11:15:37.206Z,4.53
2022-11-13T11:20:59.794Z,5.05
2022-11-13T11:26:35.345Z,4.20
2022-11-13T11:32:10.647Z,4.47
2022-11-13T11:37:44.124Z,4.85
2022-11-13T11:43:43.641Z,4.68
2022-11-13T11:54:35.025Z,5.75
2022-11-13T12:00:13.443Z,4.72
2022-11-13T12:05:49.607Z,5.00
2022-11-13T12:11:37.647Z,5.32
2022-11-13T12:17:17.156Z,5.45
2022-11-13T12:23:02.714Z,4.60
2022-11-13T12:28:31.517Z,5.90
2022-11-13T12:34:18.885Z,5.93
2022-11-13T12:39:55.230Z,7.18
2022-11-13T12:45:38.602Z,6.60
2022-11-13T12:51:04.895Z,6.90
2022-11-13T12:56:26.117Z,6.45
2022-11-13T13:02:01.405Z,5.65
2022-11-13T13:07:48.009Z,5.72
2022-11-13T13:13:23.705Z,5.85
2022-11-13T13:18:45.143Z,5.40
2022-11-13T13:24:28.619Z,5.45
2022-11-13T13:29:48.968Z,6.85
2022-11-13T13:35:44.715Z,5.57
2022-11-13T13:41:58.788Z,4.78
2022-11-13T13:47:32.287Z,6.68
2022-11-13T13:52:55.915Z,6.88
2022-11-13T13:58:21.753Z,5.97
2022-11-13T14:03:42.395Z,8.07
2022-11-13T14:09:19.332Z,8.20
2022-11-13T14:14:40.164Z,8.20
2022-11-13T14:20:01.239Z,7.68
2022-11-13T14:25:28.051Z,6.80
2022-11-13T14:30:57.826Z,7.30
2022-11-13T14:36:27.810Z,6.90
2022-11-13T14:41:58.158Z,7.75
2022-11-13T14:47:37.760Z,8.13
2022-11-13T14:53:01.942Z,8.30
2022-11-13T14:58:29.726Z,8.00
2022-11-13T15:03:51.379Z,8.05
2022-11-13T15:09:15.525Z,7.10
2022-11-13T15:14:39.810Z,9.20
2022-11-13T15:20:02.148Z,8.52
2022-11-13T15:25:26.605Z,8.55
2022-11-13T15:30:47.104Z,9.38
2022-11-13T15:36:09.497Z,10.00
2022-11-13T15:41:30.606Z,8.98
2022-11-13T15:46:50.940Z,8.40
2022-11-13T15:52:11.575Z,8.90
2022-11-13T15:57:31.700Z,8.23
2022-11-13T16:02:56.918Z,9.73
2022-11-13T16:08:17.481Z,10.30
2022-11-13T16:13:38.197Z,10.93
2022-11-13T16:19:00.361Z,9.75
2022-11-13T16:24:24.189Z,10.63
2022-11-13T16:29:45.023Z,10.55
2022-11-13T16:35:05.871Z,10.57
2022-11-13T16:40:27.237Z,10.52
2022-11-13T16:45:47.804Z,11.98
2022-11-13T16:51:08.251Z,11.40
2022-11-13T16:56:30.723Z,12.60
2022-11-13T17:01:55.291Z,12.35
2022-11-13T17:07:16.171Z,12.55
2022-11-13T17:12:36.564Z,13.20
2022-11-13T17:17:58.624Z,13.18
2022-11-13T17:23:18.948Z,11.93
2022-11-13T17:28:40.459Z,10.68
2022-11-13T17:34:01.183Z,11.48
2022-11-13T17:39:21.813Z,12.48
2022-11-13T17:44:43.711Z,13.02
2022-11-13T17:50:07.594Z,12.75
2022-11-13T17:55:28.130Z,11.65
2022-11-13T18:00:49.155Z,13.07
2022-11-13T18:06:15.534Z,13.65
2022-11-13T18:11:41.243Z,13.40
2022-11-13T18:17:01.466Z,13.82
2022-11-13T18:22:22.561Z,14.70
2022-11-13T18:27:44.260Z,14.80
2022-11-13T18:33:05.091Z,13.63
2022-11-13T18:38:25.735Z,13.23
2022-11-13T18:43:48.587Z,14.77
2022-11-13T18:49:09.644Z,13.52
2022-11-13T18:54:30.133Z,12.50
2022-11-13T18:59:50.567Z,14.45
2022-11-13T19:05:11.443Z,13.05
2022-11-13T19:10:34.463Z,14.32
2022-11-13T19:15:56.071Z,13.00
2022-11-13T19:21:17.462Z,13.23
2022-11-13T19:26:38.978Z,14.57
2022-11-13T19:31:59.034Z,14.60
2022-11-13T19:37:19.521Z,15.00
2022-11-13T19:42:42.012Z,15.07
2022-11-13T19:48:02.867Z,15.23
2022-11-13T19:53:23.295Z,14.00
2022-11-13T19:58:44.893Z,13.88
2022-11-13T20:04:05.714Z,13.35
2022-11-13T20:09:25.914Z,14.60
2022-11-13T20:14:46.622Z,14.32
2022-11-13T20:20:08.365Z,12.77
2022-11-13T20:25:28.966Z,14.05
2022-11-13T20:30:51.662Z,14.02
2022-11-13T20:36:18.459Z,12.90
2022-11-13T20:41:39.023Z,13.15
2022-11-13T20:47:02.125Z,13.55
2022-11-13T20:52:24.767Z,13.18
2022-11-13T20:57:49.891Z,13.05
2022-11-13T21:03:10.228Z,13.40
2022-11-13T21:08:31.359Z,12.65
2022-11-13T21:13:55.682Z,12.30
2022-11-13T21:19:15.746Z,12.15
2022-11-13T21:24:37.999Z,11.95
2022-11-13T21:29:58.166Z,13.63
2022-11-13T21:35:22.384Z,12.55
2022-11-13T21:40:44.642Z,12.20
2022-11-13T21:46:06.345Z,10.93
2022-11-13T21:51:26.844Z,10.75
2022-11-13T21:56:47.003Z,11.43
2022-11-13T22:02:11.394Z,10.98
2022-11-13T22:07:32.233Z,9.82
2022-11-13T22:12:52.792Z,8.20
2022-11-13T22:18:13.046Z,9.82
2022-11-13T22:23:34.674Z,9.93
2022-11-13T22:28:56.343Z,10.20
2022-11-13T22:34:16.987Z,10.13
2022-11-13T22:39:37.738Z,9.50
2022-11-13T22:44:57.940Z,10.48
2022-11-13T22:50:18.281Z,9.75
2022-11-13T22:55:38.619Z,8.13
2022-11-13T23:01:07.912Z,8.32
2022-11-13T23:06:31.674Z,9.23
2022-11-13T23:11:51.789Z,8.13
2022-11-13T23:17:12.281Z,8.80
2022-11-13T23:22:32.574Z,7.63
2022-11-13T23:27:52.917Z,8.48
2022-11-13T23:33:13.389Z,7.90
2022-11-13T23:38:33.966Z,8.38
2022-11-13T23:44:08.071Z,7.63
2022-11-13T23:49:29.037Z,7.85
2022-11-13T23:54:49.225Z,8.45
